sensor_id;sensor_type;location;lat;lon;timestamp;temperature;humidity
14908;DHT22;7545;52.092;7.006;2024-03-23T00:52:45;9.40;99.90
14908;DHT22;7545;52.092;7.006;2024-03-23T00:55:11;9.40;99.90
14908;DHT22;7545;52.092;7.006;2024-03-23T00:57:36;9.40;99.90
14908;DHT22;7545;52.092;7.006;2024-03-23T01:00:02;9.40;99.90
14908;DHT22;7545;52.092;7.006;2024-03-23T01:02:28;9.30;99.90
14908;DHT22;7545;52.092;7.006;2024-03-23T01:04:53;9.30;99.90
14908;DHT22;7545;52.092;7.006;2024-03-23T01:07:19;9.20;99.90
14908;DHT22;7545;52.092;7.006;2024-03-23T01:09:44;9.20;99.90
14908;DHT22;7545;52.092;7.006;2024-03-23T01:12:10;9.20;99.90
14908;DHT22;7545;52.092;7.006;2024-03-23T01:14:35;9.20;99.90
14908;DHT22;7545;52.092;7.006;2024-03-23T01:17:01;9.20;99.90
14908;DHT22;7545;52.092;7.006;2024-03-23T01:19:27;9.20;99.90
14908;DHT22;7545;52.092;7.006;2024-03-23T01:21:52;9.20;99.90
14908;DHT22;7545;52.092;7.006;2024-03-23T01:24:18;9.30;99.90
14908;DHT22;7545;52.092;7.006;2024-03-23T01:26:43;9.20;99.90
14908;DHT22;7545;52.092;7.006;2024-03-23T01:29:09;9.30;99.90
14908;DHT22;7545;52.092;7.006;2024-03-23T01:31:35;9.20;99.90
14908;DHT22;7545;52.092;7.006;2024-03-23T01:34:01;9.20;99.90
14908;DHT22;7545;52.092;7.006;2024-03-23T01:36:26;9.20;99.90
14908;DHT22;7545;52.092;7.006;2024-03-23T01:38:52;9.20;99.90
14908;DHT22;7545;52.092;7.006;2024-03-23T01:41:17;9.20;99.90
14908;DHT22;7545;52.092;7.006;2024-03-23T01:43:43;9.10;99.90
14908;DHT22;7545;52.092;7.006;2024-03-23T01:46:08;9.10;99.90
14908;DHT22;7545;52.092;7.006;2024-03-23T01:48:34;9.10;99.90
14908;DHT22;7545;52.092;7.006;2024-03-23T01:51:00;9.10;99.90
14908;DHT22;7545;52.092;7.006;2024-03-23T01:53:26;9.10;99.90
14908;DHT22;7545;52.092;7.006;2024-03-23T01:55:51;9.10;99.90
14908;DHT22;7545;52.092;7.006;2024-03-23T01:58:17;9.20;99.90
14908;DHT22;7545;52.092;7.006;2024-03-23T02:00:42;9.20;99.90
14908;DHT22;7545;52.092;7.006;2024-03-23T02:03:24;9.20;99.90
14908;DHT22;7545;52.092;7.006;2024-03-23T02:05:51;9.10;99.90
14908;DHT22;7545;52.092;7.006;2024-03-23T02:08:18;9.10;99.90
14908;DHT22;7545;52.092;7.006;2024-03-23T02:10:45;9.10;99.90
14908;DHT22;7545;52.092;7.006;2024-03-23T02:13:10;9.10;99.90
14908;DHT22;7545;52.092;7.006;2024-03-23T02:15:37;9.10;99.90
14908;DHT22;7545;52.092;7.006;2024-03-23T02:18:02;9.10;99.90
14908;DHT22;7545;52.092;7.006;2024-03-23T02:20:28;9.10;99.90
14908;DHT22;7545;52.092;7.006;2024-03-23T02:22:53;9.10;99.90
14908;DHT22;7545;52.092;7.006;2024-03-23T02:25:19;9.00;99.90
14908;DHT22;7545;52.092;7.006;2024-03-23T02:27:45;9.00;99.90
14908;DHT22;7545;52.092;7.006;2024-03-23T02:30:10;9.00;99.90
14908;DHT22;7545;52.092;7.006;2024-03-23T02:32:36;9.00;99.90
14908;DHT22;7545;52.092;7.006;2024-03-23T02:35:01;9.00;99.90
14908;DHT22;7545;52.092;7.006;2024-03-23T02:37:27;9.00;99.90
14908;DHT22;7545;52.092;7.006;2024-03-23T02:39:52;9.00;99.90
14908;DHT22;7545;52.092;7.006;2024-03-23T02:42:18;8.90;99.90
14908;DHT22;7545;52.092;7.006;2024-03-23T02:44:44;8.90;99.90
14908;DHT22;7545;52.092;7.006;2024-03-23T02:47:10;8.90;99.90
14908;DHT22;7545;52.092;7.006;2024-03-23T02:49:36;8.90;99.90
14908;DHT22;7545;52.092;7.006;2024-03-23T02:52:01;8.80;99.90
14908;DHT22;7545;52.092;7.006;2024-03-23T02:54:27;8.90;99.90
14908;DHT22;7545;52.092;7.006;2024-03-23T02:56:52;8.90;99.90
14908;DHT22;7545;52.092;7.006;2024-03-23T02:59:18;8.90;99.90
14908;DHT22;7545;52.092;7.006;2024-03-23T03:01:43;9.00;99.90
14908;DHT22;7545;52.092;7.006;2024-03-23T03:04:09;9.00;99.90
14908;DHT22;7545;52.092;7.006;2024-03-23T03:06:34;9.00;99.90
14908;DHT22;7545;52.092;7.006;2024-03-23T03:09:00;8.90;99.90
14908;DHT22;7545;52.092;7.006;2024-03-23T03:11:25;9.00;99.90
14908;DHT22;7545;52.092;7.006;2024-03-23T03:13:51;9.00;99.90
14908;DHT22;7545;52.092;7.006;2024-03-23T03:16:17;8.90;99.90
14908;DHT22;7545;52.092;7.006;2024-03-23T03:18:43;8.90;99.90
14908;DHT22;7545;52.092;7.006;2024-03-23T03:21:09;8.90;99.90
14908;DHT22;7545;52.092;7.006;2024-03-23T03:23:37;8.90;99.90
14908;DHT22;7545;52.092;7.006;2024-03-23T03:26:03;8.80;99.90
14908;DHT22;7545;52.092;7.006;2024-03-23T03:28:29;8.80;99.90
14908;DHT22;7545;52.092;7.006;2024-03-23T03:30:56;8.80;99.90
14908;DHT22;7545;52.092;7.006;2024-03-23T03:33:22;8.70;99.90
14908;DHT22;7545;52.092;7.006;2024-03-23T03:35:48;8.70;99.90
14908;DHT22;7545;52.092;7.006;2024-03-23T03:38:13;8.70;99.90
14908;DHT22;7545;52.092;7.006;2024-03-23T03:40:39;8.60;99.90
14908;DHT22;7545;52.092;7.006;2024-03-23T03:43:04;8.60;99.90
14908;DHT22;7545;52.092;7.006;2024-03-23T03:45:30;8.60;99.90
14908;DHT22;7545;52.092;7.006;2024-03-23T03:47:55;8.50;99.90
14908;DHT22;7545;52.092;7.006;2024-03-23T03:50:22;8.60;99.90
14908;DHT22;7545;52.092;7.006;2024-03-23T03:52:48;8.50;99.90
14908;DHT22;7545;52.092;7.006;2024-03-23T03:55:14;8.40;99.90
14908;DHT22;7545;52.092;7.006;2024-03-23T03:57:40;8.40;99.90
14908;DHT22;7545;52.092;7.006;2024-03-23T04:00:06;8.50;99.90
14908;DHT22;7545;52.092;7.006;2024-03-23T04:02:32;8.40;99.90
14908;DHT22;7545;52.092;7.006;2024-03-23T04:04:58;8.40;99.90
14908;DHT22;7545;52.092;7.006;2024-03-23T04:07:23;8.40;99.90
14908;DHT22;7545;52.092;7.006;2024-03-23T04:09:49;8.40;99.90
14908;DHT22;7545;52.092;7.006;2024-03-23T04:12:15;8.40;99.90
14908;DHT22;7545;52.092;7.006;2024-03-23T04:14:40;8.40;99.90
14908;DHT22;7545;52.092;7.006;2024-03-23T04:17:07;8.30;99.90
14908;DHT22;7545;52.092;7.006;2024-03-23T04:19:32;8.30;99.90
14908;DHT22;7545;52.092;7.006;2024-03-23T04:21:58;8.30;99.90
14908;DHT22;7545;52.092;7.006;2024-03-23T04:24:24;8.20;99.90
14908;DHT22;7545;52.092;7.006;2024-03-23T04:26:51;8.20;99.90
14908;DHT22;7545;52.092;7.006;2024-03-23T04:29:17;8.30;99.90
14908;DHT22;7545;52.092;7.006;2024-03-23T04:31:42;8.20;99.90
14908;DHT22;7545;52.092;7.006;2024-03-23T04:34:08;8.20;99.90
14908;DHT22;7545;52.092;7.006;2024-03-23T04:36:33;8.30;99.90
14908;DHT22;7545;52.092;7.006;2024-03-23T04:39:00;8.20;99.90
14908;DHT22;7545;52.092;7.006;2024-03-23T04:41:25;8.20;99.90
14908;DHT22;7545;52.092;7.006;2024-03-23T04:43:51;8.30;99.90
14908;DHT22;7545;52.092;7.006;2024-03-23T04:46:17;8.20;99.90
14908;DHT22;7545;52.092;7.006;2024-03-23T04:48:42;8.30;99.90
14908;DHT22;7545;52.092;7.006;2024-03-23T04:51:10;8.20;99.90
14908;DHT22;7545;52.092;7.006;2024-03-23T04:53:38;8.20;99.90
14908;DHT22;7545;52.092;7.006;2024-03-23T04:56:03;8.20;99.90
14908;DHT22;7545;52.092;7.006;2024-03-23T04:58:29;8.20;99.90
14908;DHT22;7545;52.092;7.006;2024-03-23T05:00:56;8.20;99.90
14908;DHT22;7545;52.092;7.006;2024-03-23T05:03:22;8.20;99.90
14908;DHT22;7545;52.092;7.006;2024-03-23T05:05:48;8.10;99.90
14908;DHT22;7545;52.092;7.006;2024-03-23T05:08:14;8.10;99.90
14908;DHT22;7545;52.092;7.006;2024-03-23T05:10:44;8.10;99.90
14908;DHT22;7545;52.092;7.006;2024-03-23T05:13:09;8.10;99.90
14908;DHT22;7545;52.092;7.006;2024-03-23T05:15:35;8.10;99.90
14908;DHT22;7545;52.092;7.006;2024-03-23T05:18:01;8.10;99.90
14908;DHT22;7545;52.092;7.006;2024-03-23T05:20:26;8.10;99.90
14908;DHT22;7545;52.092;7.006;2024-03-23T05:22:52;8.00;99.90
14908;DHT22;7545;52.092;7.006;2024-03-23T05:25:18;8.00;99.90
14908;DHT22;7545;52.092;7.006;2024-03-23T05:27:43;7.90;99.90
14908;DHT22;7545;52.092;7.006;2024-03-23T05:30:09;8.00;99.90
14908;DHT22;7545;52.092;7.006;2024-03-23T05:32:36;8.00;99.90
14908;DHT22;7545;52.092;7.006;2024-03-23T05:35:01;7.90;99.90
14908;DHT22;7545;52.092;7.006;2024-03-23T05:37:27;8.00;99.90
14908;DHT22;7545;52.092;7.006;2024-03-23T05:39:53;8.00;99.90
14908;DHT22;7545;52.092;7.006;2024-03-23T05:42:19;8.00;99.90
14908;DHT22;7545;52.092;7.006;2024-03-23T05:44:45;8.00;99.90
14908;DHT22;7545;52.092;7.006;2024-03-23T05:47:10;8.00;99.90
14908;DHT22;7545;52.092;7.006;2024-03-23T05:49:37;8.00;99.90
14908;DHT22;7545;52.092;7.006;2024-03-23T05:52:03;8.00;99.90
14908;DHT22;7545;52.092;7.006;2024-03-23T05:54:29;8.00;99.90
14908;DHT22;7545;52.092;7.006;2024-03-23T05:56:55;8.00;99.90
14908;DHT22;7545;52.092;7.006;2024-03-23T05:59:21;7.90;99.90
14908;DHT22;7545;52.092;7.006;2024-03-23T06:01:47;7.90;99.90
14908;DHT22;7545;52.092;7.006;2024-03-23T06:04:13;7.90;99.90
14908;DHT22;7545;52.092;7.006;2024-03-23T06:06:39;7.90;99.90
14908;DHT22;7545;52.092;7.006;2024-03-23T06:09:05;7.90;99.90
14908;DHT22;7545;52.092;7.006;2024-03-23T06:11:30;7.90;99.90
14908;DHT22;7545;52.092;7.006;2024-03-23T06:13:56;7.90;99.90
14908;DHT22;7545;52.092;7.006;2024-03-23T06:16:22;7.90;99.90
14908;DHT22;7545;52.092;7.006;2024-03-23T06:18:52;7.90;99.90
14908;DHT22;7545;52.092;7.006;2024-03-23T06:21:18;7.90;99.90
14908;DHT22;7545;52.092;7.006;2024-03-23T06:23:45;7.90;99.90
14908;DHT22;7545;52.092;7.006;2024-03-23T06:26:20;7.90;99.90
14908;DHT22;7545;52.092;7.006;2024-03-23T06:28:48;7.90;99.90
14908;DHT22;7545;52.092;7.006;2024-03-23T06:31:14;7.90;99.90
14908;DHT22;7545;52.092;7.006;2024-03-23T06:33:40;7.80;99.90
14908;DHT22;7545;52.092;7.006;2024-03-23T06:36:09;7.80;99.90
14908;DHT22;7545;52.092;7.006;2024-03-23T06:38:35;7.80;99.90
14908;DHT22;7545;52.092;7.006;2024-03-23T06:41:03;7.80;99.90
14908;DHT22;7545;52.092;7.006;2024-03-23T06:43:29;7.80;99.90
14908;DHT22;7545;52.092;7.006;2024-03-23T06:45:55;7.80;99.90
14908;DHT22;7545;52.092;7.006;2024-03-23T06:48:21;7.90;99.90
14908;DHT22;7545;52.092;7.006;2024-03-23T06:50:47;7.90;99.90
14908;DHT22;7545;52.092;7.006;2024-03-23T06:53:14;7.90;99.90
14908;DHT22;7545;52.092;7.006;2024-03-23T06:55:39;8.00;99.90
14908;DHT22;7545;52.092;7.006;2024-03-23T06:58:05;8.00;99.90
14908;DHT22;7545;52.092;7.006;2024-03-23T07:00:31;8.00;99.90
14908;DHT22;7545;52.092;7.006;2024-03-23T07:03:00;8.00;99.90
14908;DHT22;7545;52.092;7.006;2024-03-23T07:05:26;8.00;99.90
14908;DHT22;7545;52.092;7.006;2024-03-23T07:07:51;8.10;99.90
14908;DHT22;7545;52.092;7.006;2024-03-23T07:10:17;8.10;99.90
14908;DHT22;7545;52.092;7.006;2024-03-23T07:12:43;8.10;99.90
14908;DHT22;7545;52.092;7.006;2024-03-23T07:15:09;8.20;99.90
14908;DHT22;7545;52.092;7.006;2024-03-23T07:17:34;8.20;99.90
14908;DHT22;7545;52.092;7.006;2024-03-23T07:20:03;8.20;99.90
14908;DHT22;7545;52.092;7.006;2024-03-23T07:22:32;8.30;99.90
14908;DHT22;7545;52.092;7.006;2024-03-23T07:25:01;8.30;99.90
14908;DHT22;7545;52.092;7.006;2024-03-23T07:27:27;8.20;99.90
14908;DHT22;7545;52.092;7.006;2024-03-23T07:29:52;8.20;99.90
14908;DHT22;7545;52.092;7.006;2024-03-23T07:32:18;8.30;99.90
14908;DHT22;7545;52.092;7.006;2024-03-23T07:34:43;8.20;99.90
14908;DHT22;7545;52.092;7.006;2024-03-23T07:37:10;8.20;99.90
14908;DHT22;7545;52.092;7.006;2024-03-23T07:39:35;8.20;99.90
14908;DHT22;7545;52.092;7.006;2024-03-23T07:42:01;8.20;99.90
14908;DHT22;7545;52.092;7.006;2024-03-23T07:44:27;8.20;99.90
14908;DHT22;7545;52.092;7.006;2024-03-23T07:46:52;8.30;99.90
14908;DHT22;7545;52.092;7.006;2024-03-23T07:49:18;8.30;99.90
14908;DHT22;7545;52.092;7.006;2024-03-23T07:51:44;8.30;99.90
14908;DHT22;7545;52.092;7.006;2024-03-23T07:54:10;8.30;99.90
14908;DHT22;7545;52.092;7.006;2024-03-23T07:56:35;8.40;99.90
14908;DHT22;7545;52.092;7.006;2024-03-23T07:59:01;8.40;99.90
14908;DHT22;7545;52.092;7.006;2024-03-23T08:01:28;8.50;99.90
14908;DHT22;7545;52.092;7.006;2024-03-23T08:03:54;8.50;99.90
14908;DHT22;7545;52.092;7.006;2024-03-23T08:06:20;8.50;99.90
14908;DHT22;7545;52.092;7.006;2024-03-23T08:08:49;8.50;99.90
14908;DHT22;7545;52.092;7.006;2024-03-23T08:11:16;8.50;99.90
14908;DHT22;7545;52.092;7.006;2024-03-23T08:13:42;8.50;99.90
14908;DHT22;7545;52.092;7.006;2024-03-23T08:16:10;8.50;99.90
14908;DHT22;7545;52.092;7.006;2024-03-23T08:18:35;8.50;99.90
14908;DHT22;7545;52.092;7.006;2024-03-23T08:21:03;8.50;99.90
14908;DHT22;7545;52.092;7.006;2024-03-23T08:23:30;8.60;99.90
14908;DHT22;7545;52.092;7.006;2024-03-23T08:26:00;8.60;99.90
14908;DHT22;7545;52.092;7.006;2024-03-23T08:28:26;8.60;99.90
14908;DHT22;7545;52.092;7.006;2024-03-23T08:30:55;8.70;99.90
14908;DHT22;7545;52.092;7.006;2024-03-23T08:33:22;8.60;99.90
14908;DHT22;7545;52.092;7.006;2024-03-23T08:35:55;8.60;99.90
14908;DHT22;7545;52.092;7.006;2024-03-23T08:38:22;8.70;99.90
14908;DHT22;7545;52.092;7.006;2024-03-23T08:40:47;8.70;99.90
14908;DHT22;7545;52.092;7.006;2024-03-23T08:43:13;8.70;99.90
14908;DHT22;7545;52.092;7.006;2024-03-23T08:45:39;8.80;99.90
14908;DHT22;7545;52.092;7.006;2024-03-23T08:48:05;8.90;99.90
14908;DHT22;7545;52.092;7.006;2024-03-23T08:50:30;9.00;99.90
14908;DHT22;7545;52.092;7.006;2024-03-23T08:52:56;9.00;99.90
14908;DHT22;7545;52.092;7.006;2024-03-23T08:55:21;9.00;99.90
14908;DHT22;7545;52.092;7.006;2024-03-23T08:57:47;9.00;99.90
14908;DHT22;7545;52.092;7.006;2024-03-23T09:00:13;9.00;99.90
14908;DHT22;7545;52.092;7.006;2024-03-23T09:02:39;9.10;99.90
14908;DHT22;7545;52.092;7.006;2024-03-23T09:05:05;9.20;99.90
14908;DHT22;7545;52.092;7.006;2024-03-23T09:07:31;9.20;99.90
14908;DHT22;7545;52.092;7.006;2024-03-23T09:09:57;9.20;99.90
14908;DHT22;7545;52.092;7.006;2024-03-23T09:12:23;9.20;99.90
14908;DHT22;7545;52.092;7.006;2024-03-23T09:14:52;9.20;99.90
14908;DHT22;7545;52.092;7.006;2024-03-23T09:17:18;9.20;99.90
14908;DHT22;7545;52.092;7.006;2024-03-23T09:19:44;9.20;99.90
14908;DHT22;7545;52.092;7.006;2024-03-23T09:22:10;9.20;99.90
14908;DHT22;7545;52.092;7.006;2024-03-23T09:24:35;9.20;99.90
14908;DHT22;7545;52.092;7.006;2024-03-23T09:27:02;9.20;99.90
14908;DHT22;7545;52.092;7.006;2024-03-23T09:29:28;9.10;99.90
14908;DHT22;7545;52.092;7.006;2024-03-23T09:31:54;9.00;99.90
14908;DHT22;7545;52.092;7.006;2024-03-23T09:34:19;9.10;99.90
14908;DHT22;7545;52.092;7.006;2024-03-23T09:36:45;9.00;99.90
14908;DHT22;7545;52.092;7.006;2024-03-23T09:39:11;8.90;99.90
14908;DHT22;7545;52.092;7.006;2024-03-23T09:41:36;8.90;99.90
14908;DHT22;7545;52.092;7.006;2024-03-23T09:44:02;8.90;99.90
14908;DHT22;7545;52.092;7.006;2024-03-23T09:46:28;8.90;99.90
14908;DHT22;7545;52.092;7.006;2024-03-23T09:49:00;9.00;99.90
14908;DHT22;7545;52.092;7.006;2024-03-23T09:51:26;9.10;99.90
14908;DHT22;7545;52.092;7.006;2024-03-23T09:53:52;9.20;99.90
14908;DHT22;7545;52.092;7.006;2024-03-23T09:56:18;9.30;99.90
14908;DHT22;7545;52.092;7.006;2024-03-23T09:58:59;9.40;99.90
14908;DHT22;7545;52.092;7.006;2024-03-23T10:01:25;9.50;99.90
14908;DHT22;7545;52.092;7.006;2024-03-23T10:03:51;9.60;99.90
14908;DHT22;7545;52.092;7.006;2024-03-23T10:06:21;9.70;99.90
14908;DHT22;7545;52.092;7.006;2024-03-23T10:08:47;9.80;99.90
14908;DHT22;7545;52.092;7.006;2024-03-23T10:11:16;9.90;99.90
14908;DHT22;7545;52.092;7.006;2024-03-23T10:13:43;10.00;99.90
14908;DHT22;7545;52.092;7.006;2024-03-23T10:16:09;10.00;99.90
14908;DHT22;7545;52.092;7.006;2024-03-23T10:18:39;10.20;99.90
14908;DHT22;7545;52.092;7.006;2024-03-23T10:21:08;10.30;99.90
14908;DHT22;7545;52.092;7.006;2024-03-23T10:23:37;10.40;99.90
14908;DHT22;7545;52.092;7.006;2024-03-23T10:26:24;10.50;99.90
14908;DHT22;7545;52.092;7.006;2024-03-23T10:28:57;10.60;99.90
14908;DHT22;7545;52.092;7.006;2024-03-23T10:31:37;10.50;99.90
14908;DHT22;7545;52.092;7.006;2024-03-23T10:34:03;10.50;99.90
14908;DHT22;7545;52.092;7.006;2024-03-23T10:36:29;10.50;99.90
14908;DHT22;7545;52.092;7.006;2024-03-23T10:38:56;10.40;99.90
14908;DHT22;7545;52.092;7.006;2024-03-23T10:41:26;10.30;99.90
14908;DHT22;7545;52.092;7.006;2024-03-23T10:43:53;10.10;99.90
14908;DHT22;7545;52.092;7.006;2024-03-23T10:46:24;10.00;99.90
14908;DHT22;7545;52.092;7.006;2024-03-23T10:48:49;9.90;99.90
14908;DHT22;7545;52.092;7.006;2024-03-23T10:51:15;10.00;99.90
14908;DHT22;7545;52.092;7.006;2024-03-23T10:53:41;10.10;99.90
14908;DHT22;7545;52.092;7.006;2024-03-23T10:56:07;10.10;99.90
14908;DHT22;7545;52.092;7.006;2024-03-23T10:58:44;10.20;99.90
14908;DHT22;7545;52.092;7.006;2024-03-23T11:01:12;10.20;99.90
14908;DHT22;7545;52.092;7.006;2024-03-23T11:03:38;10.30;99.90
14908;DHT22;7545;52.092;7.006;2024-03-23T11:06:05;10.40;99.90
14908;DHT22;7545;52.092;7.006;2024-03-23T11:08:36;10.30;99.90
14908;DHT22;7545;52.092;7.006;2024-03-23T11:11:18;10.40;99.90
14908;DHT22;7545;52.092;7.006;2024-03-23T11:13:49;10.40;99.90
14908;DHT22;7545;52.092;7.006;2024-03-23T11:16:17;10.40;99.90
14908;DHT22;7545;52.092;7.006;2024-03-23T11:18:43;10.50;99.90
14908;DHT22;7545;52.092;7.006;2024-03-23T11:21:10;10.60;99.90
14908;DHT22;7545;52.092;7.006;2024-03-23T11:23:36;10.70;99.90
14908;DHT22;7545;52.092;7.006;2024-03-23T11:26:01;10.80;99.90
14908;DHT22;7545;52.092;7.006;2024-03-23T11:28:27;10.80;99.90
14908;DHT22;7545;52.092;7.006;2024-03-23T11:30:53;10.80;99.90
14908;DHT22;7545;52.092;7.006;2024-03-23T11:33:18;10.60;99.90
14908;DHT22;7545;52.092;7.006;2024-03-23T11:35:44;10.40;99.90
14908;DHT22;7545;52.092;7.006;2024-03-23T11:40:40;10.00;99.90
14908;DHT22;7545;52.092;7.006;2024-03-23T11:43:14;10.00;99.90
14908;DHT22;7545;52.092;7.006;2024-03-23T11:45:42;10.00;99.90
14908;DHT22;7545;52.092;7.006;2024-03-23T11:48:13;10.10;99.90
14908;DHT22;7545;52.092;7.006;2024-03-23T11:50:43;10.10;99.90
14908;DHT22;7545;52.092;7.006;2024-03-23T11:53:09;10.20;99.90
14908;DHT22;7545;52.092;7.006;2024-03-23T11:55:50;10.30;99.90
14908;DHT22;7545;52.092;7.006;2024-03-23T11:58:18;10.30;99.90
14908;DHT22;7545;52.092;7.006;2024-03-23T12:00:59;10.40;99.90
14908;DHT22;7545;52.092;7.006;2024-03-23T12:03:26;10.40;99.90
14908;DHT22;7545;52.092;7.006;2024-03-23T12:06:01;10.40;99.90
14908;DHT22;7545;52.092;7.006;2024-03-23T12:08:34;10.40;99.90
14908;DHT22;7545;52.092;7.006;2024-03-23T12:11:13;10.50;99.90
14908;DHT22;7545;52.092;7.006;2024-03-23T12:13:41;10.60;99.90
14908;DHT22;7545;52.092;7.006;2024-03-23T12:16:11;10.70;99.90
14908;DHT22;7545;52.092;7.006;2024-03-23T12:18:42;10.80;99.90
14908;DHT22;7545;52.092;7.006;2024-03-23T12:21:08;10.90;99.90
14908;DHT22;7545;52.092;7.006;2024-03-23T12:23:34;11.00;99.90
14908;DHT22;7545;52.092;7.006;2024-03-23T12:26:00;11.10;99.90
14908;DHT22;7545;52.092;7.006;2024-03-23T12:28:26;11.20;99.90
14908;DHT22;7545;52.092;7.006;2024-03-23T12:30:52;11.20;99.90
14908;DHT22;7545;52.092;7.006;2024-03-23T12:33:19;11.20;99.90
14908;DHT22;7545;52.092;7.006;2024-03-23T12:35:45;11.10;99.90
14908;DHT22;7545;52.092;7.006;2024-03-23T12:38:10;11.00;99.90
14908;DHT22;7545;52.092;7.006;2024-03-23T12:40:36;10.90;99.90
14908;DHT22;7545;52.092;7.006;2024-03-23T12:43:01;10.70;99.90
14908;DHT22;7545;52.092;7.006;2024-03-23T12:45:27;10.50;99.90
14908;DHT22;7545;52.092;7.006;2024-03-23T12:47:52;10.10;99.90
14908;DHT22;7545;52.092;7.006;2024-03-23T12:50:19;9.80;99.90
14908;DHT22;7545;52.092;7.006;2024-03-23T12:52:45;9.70;99.90
14908;DHT22;7545;52.092;7.006;2024-03-23T12:55:11;9.60;99.90
14908;DHT22;7545;52.092;7.006;2024-03-23T12:57:36;9.40;99.90
14908;DHT22;7545;52.092;7.006;2024-03-23T13:00:03;9.50;99.90
14908;DHT22;7545;52.092;7.006;2024-03-23T13:02:29;9.40;99.90
14908;DHT22;7545;52.092;7.006;2024-03-23T13:04:55;9.50;99.90
14908;DHT22;7545;52.092;7.006;2024-03-23T13:07:22;9.60;99.90
14908;DHT22;7545;52.092;7.006;2024-03-23T13:09:50;9.70;99.90
14908;DHT22;7545;52.092;7.006;2024-03-23T13:12:16;9.80;99.90
14908;DHT22;7545;52.092;7.006;2024-03-23T13:14:44;10.00;99.90
14908;DHT22;7545;52.092;7.006;2024-03-23T13:17:09;10.20;99.90
14908;DHT22;7545;52.092;7.006;2024-03-23T13:19:35;10.30;99.90
14908;DHT22;7545;52.092;7.006;2024-03-23T13:22:01;10.50;99.90
14908;DHT22;7545;52.092;7.006;2024-03-23T13:24:28;10.50;99.90
14908;DHT22;7545;52.092;7.006;2024-03-23T13:26:54;10.50;99.90
14908;DHT22;7545;52.092;7.006;2024-03-23T13:29:20;10.50;99.90
14908;DHT22;7545;52.092;7.006;2024-03-23T13:31:47;10.40;99.90
14908;DHT22;7545;52.092;7.006;2024-03-23T13:34:13;10.30;99.90
14908;DHT22;7545;52.092;7.006;2024-03-23T13:36:41;10.20;99.90
14908;DHT22;7545;52.092;7.006;2024-03-23T13:39:07;10.00;99.90
14908;DHT22;7545;52.092;7.006;2024-03-23T13:41:37;9.90;99.90
14908;DHT22;7545;52.092;7.006;2024-03-23T13:44:04;9.90;99.90
14908;DHT22;7545;52.092;7.006;2024-03-23T13:46:29;10.00;99.90
14908;DHT22;7545;52.092;7.006;2024-03-23T13:48:55;10.20;99.90
14908;DHT22;7545;52.092;7.006;2024-03-23T13:51:23;10.30;99.90
14908;DHT22;7545;52.092;7.006;2024-03-23T13:53:50;10.50;99.90
14908;DHT22;7545;52.092;7.006;2024-03-23T13:56:15;10.70;99.90
14908;DHT22;7545;52.092;7.006;2024-03-23T13:58:41;10.80;99.90
14908;DHT22;7545;52.092;7.006;2024-03-23T14:01:11;10.90;99.90
14908;DHT22;7545;52.092;7.006;2024-03-23T14:03:36;11.10;99.90
14908;DHT22;7545;52.092;7.006;2024-03-23T14:06:02;11.30;99.90
14908;DHT22;7545;52.092;7.006;2024-03-23T14:08:28;11.30;99.90
14908;DHT22;7545;52.092;7.006;2024-03-23T14:10:54;11.30;99.90
14908;DHT22;7545;52.092;7.006;2024-03-23T14:13:19;11.20;99.90
14908;DHT22;7545;52.092;7.006;2024-03-23T14:15:45;11.10;99.90
14908;DHT22;7545;52.092;7.006;2024-03-23T14:18:11;11.10;99.90
14908;DHT22;7545;52.092;7.006;2024-03-23T14:20:36;11.10;99.90
14908;DHT22;7545;52.092;7.006;2024-03-23T14:23:02;11.20;99.90
14908;DHT22;7545;52.092;7.006;2024-03-23T14:25:28;11.20;99.90
14908;DHT22;7545;52.092;7.006;2024-03-23T14:27:54;11.20;99.90
14908;DHT22;7545;52.092;7.006;2024-03-23T14:30:20;11.10;99.90
14908;DHT22;7545;52.092;7.006;2024-03-23T14:32:45;11.00;99.90
14908;DHT22;7545;52.092;7.006;2024-03-23T14:35:11;11.00;99.90
14908;DHT22;7545;52.092;7.006;2024-03-23T14:37:37;10.90;99.90
14908;DHT22;7545;52.092;7.006;2024-03-23T14:40:04;10.80;99.90
14908;DHT22;7545;52.092;7.006;2024-03-23T14:42:30;10.70;99.90
14908;DHT22;7545;52.092;7.006;2024-03-23T14:44:57;10.80;99.90
14908;DHT22;7545;52.092;7.006;2024-03-23T14:47:23;10.80;99.90
14908;DHT22;7545;52.092;7.006;2024-03-23T14:49:49;10.70;99.90
14908;DHT22;7545;52.092;7.006;2024-03-23T14:52:16;10.60;99.90
14908;DHT22;7545;52.092;7.006;2024-03-23T14:54:42;10.60;99.90
14908;DHT22;7545;52.092;7.006;2024-03-23T14:57:07;10.50;99.90
14908;DHT22;7545;52.092;7.006;2024-03-23T14:59:34;10.40;99.90
14908;DHT22;7545;52.092;7.006;2024-03-23T15:02:00;10.50;99.90
14908;DHT22;7545;52.092;7.006;2024-03-23T15:04:26;10.40;99.90
14908;DHT22;7545;52.092;7.006;2024-03-23T15:06:51;10.50;99.90
14908;DHT22;7545;52.092;7.006;2024-03-23T15:09:17;10.40;99.90
14908;DHT22;7545;52.092;7.006;2024-03-23T15:11:43;10.50;99.90
14908;DHT22;7545;52.092;7.006;2024-03-23T15:14:09;10.60;99.90
14908;DHT22;7545;52.092;7.006;2024-03-23T15:16:36;10.60;99.90
14908;DHT22;7545;52.092;7.006;2024-03-23T15:19:02;10.50;99.90
14908;DHT22;7545;52.092;7.006;2024-03-23T15:21:27;10.40;99.90
14908;DHT22;7545;52.092;7.006;2024-03-23T15:23:53;10.30;99.90
14908;DHT22;7545;52.092;7.006;2024-03-23T15:26:19;10.20;99.90
14908;DHT22;7545;52.092;7.006;2024-03-23T15:28:48;10.10;99.90
14908;DHT22;7545;52.092;7.006;2024-03-23T15:31:23;10.00;99.90
14908;DHT22;7545;52.092;7.006;2024-03-23T15:33:49;9.70;99.90
14908;DHT22;7545;52.092;7.006;2024-03-23T15:36:14;9.40;99.90
14908;DHT22;7545;52.092;7.006;2024-03-23T15:38:40;9.40;99.90
14908;DHT22;7545;52.092;7.006;2024-03-23T15:41:06;9.30;99.90
14908;DHT22;7545;52.092;7.006;2024-03-23T15:43:31;9.40;99.90
14908;DHT22;7545;52.092;7.006;2024-03-23T15:45:59;9.50;99.90
14908;DHT22;7545;52.092;7.006;2024-03-23T15:48:28;9.60;99.90
14908;DHT22;7545;52.092;7.006;2024-03-23T15:50:54;9.80;99.90
14908;DHT22;7545;52.092;7.006;2024-03-23T15:53:21;10.00;99.90
14908;DHT22;7545;52.092;7.006;2024-03-23T15:55:59;10.10;99.90
14908;DHT22;7545;52.092;7.006;2024-03-23T15:58:25;10.30;99.90
14908;DHT22;7545;52.092;7.006;2024-03-23T16:00:55;10.50;99.90
14908;DHT22;7545;52.092;7.006;2024-03-23T16:03:21;10.50;99.90
14908;DHT22;7545;52.092;7.006;2024-03-23T16:08:21;10.60;99.90
14908;DHT22;7545;52.092;7.006;2024-03-23T16:10:47;10.70;99.90
14908;DHT22;7545;52.092;7.006;2024-03-23T16:13:13;10.70;99.90
14908;DHT22;7545;52.092;7.006;2024-03-23T16:15:39;10.70;99.90
14908;DHT22;7545;52.092;7.006;2024-03-23T16:18:05;10.60;99.90
14908;DHT22;7545;52.092;7.006;2024-03-23T16:20:31;10.50;99.90
14908;DHT22;7545;52.092;7.006;2024-03-23T16:22:59;10.50;99.90
14908;DHT22;7545;52.092;7.006;2024-03-23T16:25:25;10.50;99.90
14908;DHT22;7545;52.092;7.006;2024-03-23T16:27:50;10.40;99.90
14908;DHT22;7545;52.092;7.006;2024-03-23T16:30:16;10.40;99.90
14908;DHT22;7545;52.092;7.006;2024-03-23T16:32:41;10.40;99.90
14908;DHT22;7545;52.092;7.006;2024-03-23T16:35:07;10.40;99.90
14908;DHT22;7545;52.092;7.006;2024-03-23T16:37:36;10.30;99.90
14908;DHT22;7545;52.092;7.006;2024-03-23T16:40:02;10.20;99.90
14908;DHT22;7545;52.092;7.006;2024-03-23T16:42:27;10.20;99.90
14908;DHT22;7545;52.092;7.006;2024-03-23T16:44:54;10.20;99.90
14908;DHT22;7545;52.092;7.006;2024-03-23T16:47:19;10.00;99.90
14908;DHT22;7545;52.092;7.006;2024-03-23T16:49:45;10.00;99.90